Terminal Aerodrome Forecast
Issued by NWS Omaha/Valley, NE

Home | Current Version | Previous Version | Text Only | Print | Product List | Glossary Off
Versions: 1 2 3 4 5 6 7 8 9 10 11 12 13 14 15 16 17 18 19 20 21 22 23 24 25 26 27 28 29

000
FTUS43 KOAX 260703 AAA
TAFOFK
TAF AMD
KOFK 260703Z 2607/2706 10003KT P6SM BKN150
      TEMPO 2607/2609 4SM -TSRA OVC040CB
     FM260900 08003KT 4SM BR BKN120
     FM261500 11008KT P6SM BKN120
      TEMPO 2618/2622 4SM -TSRA OVC050CB
     FM262300 36010KT P6SM SCT120=

USA.gov is the U.S. government's official web portal to all federal, state and local government web resources and services.